Time;durP1;ratioP1;P1;durP2;ratioP2;P2;SDS_P1;SDS_P2;PMS_P1;PMS_P2;Temp;Humidity;BMP_temperature;BMP_pressure;BME280_temperature;BME280_humidity;BME280_pressure;Samples;Min_cycle;Max_cycle;Signal;HPM_P1;HPM_P2
2023/10/16 00:00:40;;;;;;;9.00;8.40;;;7.70;99.90;;;;;;5050307;28;20385;-87
2023/10/16 00:03:06;;;;;;;8.77;8.18;;;7.80;99.90;;;;;;5037706;28;20049;-87
2023/10/16 00:05:51;;;;;;;8.75;8.15;;;7.90;99.90;;;;;;5032329;28;20715;-88
2023/10/16 00:08:18;;;;;;;8.32;7.72;;;7.80;99.90;;;;;;5014416;28;20083;-85
2023/10/16 00:10:57;;;;;;;8.90;8.30;;;7.80;99.90;;;;;;5010913;28;20136;-85
2023/10/16 00:13:28;;;;;;;8.32;7.72;;;7.90;99.90;;;;;;5010563;28;20040;-86
2023/10/16 00:15:55;;;;;;;9.02;8.43;;;7.90;99.90;;;;;;5031642;28;20056;-87
2023/10/16 00:18:24;;;;;;;8.82;8.23;;;7.90;99.90;;;;;;5031605;28;20490;-86
2023/10/16 00:20:56;;;;;;;8.70;8.10;;;7.90;99.90;;;;;;5032083;28;20131;-86
2023/10/16 00:23:25;;;;;;;9.38;8.77;;;8.10;99.90;;;;;;5034025;28;20037;-87
2023/10/16 00:25:52;;;;;;;8.10;7.55;;;8.00;99.90;;;;;;5030163;28;20044;-86
2023/10/16 00:28:21;;;;;;;8.95;8.35;;;8.20;99.90;;;;;;5011657;28;20041;-84
2023/10/16 00:30:47;;;;;;;8.85;8.25;;;8.10;99.90;;;;;;5025289;28;20065;-86
2023/10/16 00:33:13;;;;;;;8.68;8.07;;;8.30;99.90;;;;;;5028407;28;20080;-85
2023/10/16 00:35:41;;;;;;;8.30;7.72;;;8.40;99.90;;;;;;5029015;28;20534;-86
2023/10/16 00:38:22;;;;;;;8.52;7.93;;;8.20;99.90;;;;;;5026728;28;20077;-84
2023/10/16 00:40:52;;;;;;;8.20;7.65;;;8.30;99.90;;;;;;5024999;28;20708;-85
2023/10/16 00:43:22;;;;;;;8.43;7.85;;;8.50;99.90;;;;;;5028547;28;20045;-86
2023/10/16 00:46:06;;;;;;;8.15;7.60;;;8.60;99.90;;;;;;5045122;28;20043;-86
2023/10/16 00:48:36;;;;;;;8.38;7.80;;;8.40;99.90;;;;;;5012048;28;20072;-85
2023/10/16 00:51:09;;;;;;;9.40;8.80;;;8.60;99.90;;;;;;5016269;28;20057;-85
2023/10/16 00:53:37;;;;;;;9.40;8.80;;;8.40;99.90;;;;;;5026512;28;20434;-83
2023/10/16 00:56:08;;;;;;;9.95;9.35;;;8.40;99.90;;;;;;5030727;28;20044;-85
2023/10/16 00:58:37;;;;;;;10.32;9.65;;;8.30;99.90;;;;;;5015716;28;20045;-86
2023/10/16 01:01:09;;;;;;;9.70;9.10;;;8.50;99.90;;;;;;5027462;28;20600;-87
2023/10/16 01:03:44;;;;;;;9.65;9.05;;;8.40;99.90;;;;;;5028919;28;20060;-86
2023/10/16 01:06:24;;;;;;;9.52;8.93;;;8.20;99.90;;;;;;5013669;28;20049;-85
2023/10/16 01:08:50;;;;;;;9.27;8.68;;;8.30;99.90;;;;;;5030114;28;20133;-85
2023/10/16 01:11:19;;;;;;;8.63;8.02;;;8.20;99.90;;;;;;5030305;28;20045;-85
2023/10/16 01:13:47;;;;;;;9.38;8.77;;;8.20;99.90;;;;;;5027772;28;20060;-86
2023/10/16 01:16:17;;;;;;;10.38;9.70;;;8.20;99.90;;;;;;5029884;28;20049;-86
2023/10/16 01:18:46;;;;;;;9.65;9.05;;;8.00;99.90;;;;;;5032094;28;20521;-85
2023/10/16 01:21:17;;;;;;;9.25;8.65;;;8.20;99.90;;;;;;5026999;28;20745;-85
2023/10/16 01:23:45;;;;;;;9.65;9.05;;;8.10;99.90;;;;;;5015509;28;20131;-85
2023/10/16 01:26:14;;;;;;;8.85;8.25;;;8.10;99.90;;;;;;5011823;28;20052;-86
2023/10/16 01:28:41;;;;;;;9.60;9.00;;;8.00;99.90;;;;;;5031097;28;20588;-85
2023/10/16 01:31:07;;;;;;;9.95;9.35;;;8.10;99.90;;;;;;5030892;28;20057;-87
2023/10/16 01:33:33;;;;;;;9.43;8.82;;;8.00;99.90;;;;;;5029895;28;20146;-86
2023/10/16 01:35:58;;;;;;;7.75;7.25;;;8.10;99.90;;;;;;5033450;28;20135;-86
2023/10/16 01:38:27;;;;;;;8.43;7.82;;;8.10;99.90;;;;;;5026672;28;20429;-86
2023/10/16 01:41:05;;;;;;;7.88;7.38;;;8.20;99.90;;;;;;5030373;28;20056;-87
2023/10/16 01:43:32;;;;;;;8.45;7.85;;;8.30;99.90;;;;;;5061990;28;20048;-86
2023/10/16 01:46:07;;;;;;;8.48;7.88;;;8.40;99.90;;;;;;5038248;28;20067;-86
2023/10/16 01:48:34;;;;;;;8.68;8.07;;;8.20;99.90;;;;;;5044785;28;20048;-85
2023/10/16 01:51:01;;;;;;;8.50;7.90;;;8.20;99.90;;;;;;5063552;28;20128;-86
2023/10/16 01:53:32;;;;;;;7.90;7.38;;;8.40;99.90;;;;;;5027690;28;20037;-86
2023/10/16 01:55:58;;;;;;;8.45;7.85;;;8.40;99.90;;;;;;5036516;28;20097;-85
2023/10/16 01:58:33;;;;;;;7.78;7.28;;;8.30;99.90;;;;;;5016202;28;20057;-86
2023/10/16 02:00:59;;;;;;;8.20;7.60;;;8.30;99.90;;;;;;5028428;28;20052;-85
2023/10/16 02:03:26;;;;;;;8.13;7.57;;;8.30;99.90;;;;;;5014113;28;20683;-85
2023/10/16 02:05:52;;;;;;;8.48;7.88;;;8.40;99.90;;;;;;5030588;28;20630;-85
2023/10/16 02:08:20;;;;;;;8.13;7.60;;;8.60;99.90;;;;;;5030033;28;20117;-86
2023/10/16 02:10:46;;;;;;;8.60;8.00;;;8.60;99.90;;;;;;5030652;28;20497;-85
2023/10/16 02:13:12;;;;;;;8.63;8.02;;;8.60;99.90;;;;;;5028469;28;20051;-86
2023/10/16 02:15:38;;;;;;;7.75;7.25;;;8.70;99.90;;;;;;5028164;28;20048;-87
2023/10/16 02:18:08;;;;;;;7.82;7.32;;;8.60;99.90;;;;;;5013972;28;20048;-85
2023/10/16 02:20:38;;;;;;;7.90;7.32;;;8.50;99.90;;;;;;5059544;28;20132;-86
2023/10/16 02:23:07;;;;;;;7.65;7.15;;;8.80;99.90;;;;;;5029001;28;20544;-86
2023/10/16 02:25:34;;;;;;;8.23;7.68;;;8.60;99.90;;;;;;5023907;28;20059;-86
2023/10/16 02:28:00;;;;;;;7.95;7.45;;;8.90;99.90;;;;;;5059913;28;20085;-85
2023/10/16 02:32:53;;;;;;;7.80;7.30;;;8.70;99.90;;;;;;5048909;28;20053;-86
2023/10/16 02:35:22;;;;;;;7.82;7.32;;;8.70;99.90;;;;;;5032841;28;20139;-86
2023/10/16 02:37:53;;;;;;;7.32;6.82;;;8.70;99.90;;;;;;5058481;28;20049;-86
2023/10/16 02:40:20;;;;;;;7.82;7.32;;;8.90;99.90;;;;;;5006840;28;20353;-86
2023/10/16 02:42:52;;;;;;;7.63;7.13;;;8.70;99.90;;;;;;5035542;28;20044;-86
2023/10/16 02:45:27;;;;;;;7.43;6.93;;;8.90;99.90;;;;;;5026472;28;20080;-86
2023/10/16 02:47:53;;;;;;;8.00;7.50;;;8.70;99.90;;;;;;5030241;28;20040;-85
2023/10/16 02:50:22;;;;;;;8.10;7.57;;;8.70;99.90;;;;;;5035242;28;20064;-85
2023/10/16 02:52:50;;;;;;;7.82;7.32;;;8.90;99.90;;;;;;5031522;28;20057;-86
2023/10/16 02:55:16;;;;;;;8.35;7.80;;;8.60;99.90;;;;;;5045511;28;20052;-85
2023/10/16 02:57:42;;;;;;;8.45;7.90;;;8.60;99.90;;;;;;5028739;28;21917;-85
2023/10/16 03:00:25;;;;;;;9.38;8.77;;;8.50;99.90;;;;;;5033694;28;20075;-84
2023/10/16 03:02:51;;;;;;;8.75;8.15;;;8.50;99.90;;;;;;5015106;28;20498;-86
2023/10/16 03:05:24;;;;;;;8.07;7.55;;;8.30;99.90;;;;;;5013901;28;20040;-86
2023/10/16 03:07:51;;;;;;;9.23;8.63;;;8.50;99.90;;;;;;5018477;28;20405;-85
2023/10/16 03:10:20;;;;;;;8.95;8.35;;;8.30;99.90;;;;;;5028080;28;20055;-86
2023/10/16 03:12:52;;;;;;;8.77;8.20;;;8.40;99.90;;;;;;5033349;28;20082;-84
2023/10/16 03:15:26;;;;;;;8.32;7.78;;;8.40;99.90;;;;;;5026742;28;20059;-85
2023/10/16 03:17:54;;;;;;;8.20;7.68;;;8.50;99.90;;;;;;5029684;28;20494;-86
2023/10/16 03:20:28;;;;;;;7.78;7.28;;;8.60;99.90;;;;;;5033785;28;20099;-86
2023/10/16 03:22:54;;;;;;;8.05;7.53;;;8.60;99.90;;;;;;5065812;28;20665;-83
2023/10/16 03:28:05;;;;;;;8.48;7.90;;;8.50;99.90;;;;;;5027060;28;20141;-86
2023/10/16 03:30:31;;;;;;;8.32;7.78;;;8.40;99.90;;;;;;5027146;28;20071;-85
2023/10/16 03:32:58;;;;;;;9.45;8.85;;;8.60;99.90;;;;;;5029270;28;20045;-86
2023/10/16 03:35:30;;;;;;;9.00;8.40;;;8.60;99.90;;;;;;5026528;28;20052;-85
2023/10/16 03:37:56;;;;;;;9.15;8.55;;;8.30;99.90;;;;;;5028744;28;20048;-86
2023/10/16 03:40:27;;;;;;;9.38;8.77;;;8.30;99.90;;;;;;5029803;28;20068;-85
2023/10/16 03:42:54;;;;;;;8.93;8.35;;;8.30;99.90;;;;;;5032219;28;20100;-86
2023/10/16 03:45:23;;;;;;;9.07;8.48;;;8.20;99.90;;;;;;5030525;28;20106;-85
2023/10/16 03:47:53;;;;;;;9.60;9.00;;;8.20;99.90;;;;;;5018125;28;20055;-85
2023/10/16 03:50:23;;;;;;;8.85;8.27;;;8.10;99.90;;;;;;5037021;28;20135;-87
2023/10/16 03:52:50;;;;;;;9.35;8.75;;;8.10;99.90;;;;;;5046336;28;20279;-85
2023/10/16 03:55:25;;;;;;;9.52;8.93;;;7.90;99.90;;;;;;5048227;28;20056;-86
2023/10/16 03:57:57;;;;;;;8.80;8.20;;;8.20;99.90;;;;;;5080356;28;20097;-86
2023/10/16 04:00:26;;;;;;;8.80;8.20;;;8.20;99.90;;;;;;5053778;28;20057;-86
2023/10/16 04:02:52;;;;;;;9.27;8.68;;;8.20;99.90;;;;;;5053736;28;20089;-84
2023/10/16 04:05:31;;;;;;;9.02;8.43;;;8.20;99.90;;;;;;5045504;28;20045;-86
2023/10/16 04:07:56;;;;;;;8.73;8.15;;;8.30;99.90;;;;;;5066272;28;20135;-85
2023/10/16 04:10:28;;;;;;;9.02;8.43;;;8.20;99.90;;;;;;5052741;28;20040;-86
2023/10/16 04:12:57;;;;;;;9.02;8.43;;;8.30;99.90;;;;;;5046145;28;20052;-85
2023/10/16 04:31:45;;;;;;;7.75;7.25;;;8.50;99.90;;;;;;5029726;28;20700;-84
2023/10/16 04:36:53;;;;;;;8.02;7.50;;;8.60;99.90;;;;;;5033342;28;20497;-86
2023/10/16 04:45:38;;;;;;;8.73;8.15;;;8.30;99.90;;;;;;5035169;28;20401;-85
2023/10/16 04:50:37;;;;;;;7.40;6.90;;;8.40;99.90;;;;;;5036431;28;20144;-87
2023/10/16 05:03:24;;;;;;;7.55;7.05;;;8.60;99.90;;;;;;5031193;28;20103;-87
2023/10/16 05:06:02;;;;;;;7.28;6.78;;;8.60;99.90;;;;;;5019472;28;20041;-88
2023/10/16 05:08:35;;;;;;;7.28;6.78;;;8.70;99.90;;;;;;5019024;28;20116;-87
2023/10/16 06:16:22;;;;;;;8.13;7.60;;;8.10;99.90;;;;;;5036216;28;20087;-91
2023/10/16 06:18:48;;;;;;;7.25;6.75;;;7.90;99.90;;;;;;5043278;28;20516;-90
2023/10/16 06:21:15;;;;;;;8.00;7.50;;;7.90;99.90;;;;;;5052257;28;20044;-89
2023/10/16 06:23:42;;;;;;;7.50;7.00;;;7.90;99.90;;;;;;5055339;28;20052;-89
2023/10/16 06:26:09;;;;;;;7.85;7.35;;;8.10;99.90;;;;;;5019615;28;20052;-89
2023/10/16 06:28:47;;;;;;;8.00;7.50;;;8.00;99.90;;;;;;5016045;28;20487;-94
2023/10/16 06:31:25;;;;;;;7.90;7.40;;;8.10;99.90;;;;;;5022005;28;20048;-88
2023/10/16 06:33:56;;;;;;;7.82;7.32;;;8.20;99.90;;;;;;5033087;28;20191;-89
2023/10/16 06:36:24;;;;;;;7.28;6.78;;;8.20;99.90;;;;;;5015423;28;20056;-88
2023/10/16 06:38:53;;;;;;;6.72;6.30;;;8.20;99.90;;;;;;5030891;28;20056;-90
2023/10/16 06:41:20;;;;;;;7.22;6.72;;;8.30;99.90;;;;;;5023447;28;20045;-88
2023/10/16 06:43:47;;;;;;;6.68;6.25;;;8.30;99.90;;;;;;5020800;28;20041;-88
2023/10/16 06:46:23;;;;;;;6.20;5.80;;;8.50;99.90;;;;;;5040152;28;20505;-88
2023/10/16 06:48:52;;;;;;;6.10;5.70;;;8.70;99.90;;;;;;5040967;28;20048;-92
2023/10/16 06:51:25;;;;;;;5.75;5.35;;;9.00;99.90;;;;;;5038878;28;20097;-91
2023/10/16 06:53:53;;;;;;;5.75;5.35;;;8.90;99.90;;;;;;5051426;28;20041;-89
2023/10/16 06:56:32;;;;;;;6.05;5.65;;;9.20;99.90;;;;;;5053328;28;20110;-89
2023/10/16 06:58:58;;;;;;;6.05;5.65;;;9.40;99.90;;;;;;5022919;28;20060;-90
2023/10/16 07:01:27;;;;;;;5.38;5.03;;;9.40;99.90;;;;;;5033033;28;20100;-89
2023/10/16 07:03:56;;;;;;;4.80;4.50;;;9.60;99.90;;;;;;5037567;28;20127;-90
2023/10/16 07:06:32;;;;;;;5.03;4.70;;;9.80;99.90;;;;;;5018399;28;20048;-89
2023/10/16 07:09:00;;;;;;;5.03;4.70;;;9.70;99.90;;;;;;5018606;28;20048;-92
2023/10/16 07:11:27;;;;;;;5.03;4.70;;;9.80;99.90;;;;;;5017966;28;20048;-87
2023/10/16 07:13:54;;;;;;;5.95;5.55;;;10.10;99.90;;;;;;5065466;28;20063;-88
2023/10/16 07:16:20;;;;;;;4.63;4.32;;;10.20;99.90;;;;;;5034760;28;20393;-89
2023/10/16 07:18:50;;;;;;;4.82;4.53;;;10.30;99.90;;;;;;5038917;28;20045;-91
2023/10/16 07:21:19;;;;;;;4.55;4.25;;;10.50;99.90;;;;;;5019849;28;20048;-89
2023/10/16 07:23:44;;;;;;;5.05;4.72;;;10.50;99.90;;;;;;5035151;28;20756;-89
2023/10/16 07:26:10;;;;;;;5.93;5.55;;;10.50;99.90;;;;;;5039103;28;20076;-91
2023/10/16 07:28:39;;;;;;;6.15;5.78;;;10.50;99.90;;;;;;5035728;28;20060;-93
2023/10/16 07:31:05;;;;;;;6.18;5.80;;;10.50;99.90;;;;;;5021384;28;20056;-91
2023/10/16 07:33:32;;;;;;;5.80;5.45;;;10.40;99.90;;;;;;5025032;28;20044;-88
2023/10/16 07:36:01;;;;;;;6.55;6.13;;;10.50;99.90;;;;;;5017754;28;20056;-88
2023/10/16 07:38:28;;;;;;;5.63;5.28;;;10.50;99.90;;;;;;5040852;28;20553;-91
2023/10/16 07:41:00;;;;;;;6.18;5.80;;;10.60;99.90;;;;;;5031553;28;20809;-92
2023/10/16 07:43:28;;;;;;;6.38;6.00;;;10.50;99.90;;;;;;5039590;28;20040;-90
2023/10/16 07:46:16;;;;;;;5.32;5.00;;;10.60;99.90;;;;;;5054170;28;20083;-90
2023/10/16 07:48:44;;;;;;;5.28;4.95;;;10.60;99.90;;;;;;5038104;28;20076;-87
2023/10/16 07:51:11;;;;;;;5.60;5.25;;;10.70;99.90;;;;;;5036724;28;20049;-90
2023/10/16 07:53:38;;;;;;;5.95;5.60;;;10.60;99.90;;;;;;5051426;28;20045;-90
2023/10/16 07:59:09;;;;;;;6.25;5.88;;;10.70;99.90;;;;;;5027876;28;20152;-87
2023/10/16 08:04:27;;;;;;;7.18;6.75;;;10.60;99.90;;;;;;5032441;28;20090;-88
2023/10/16 08:12:22;;;;;;;6.20;5.82;;;10.80;99.90;;;;;;5021143;28;20056;-90
2023/10/16 08:14:54;;;;;;;5.82;5.47;;;11.00;99.90;;;;;;5047705;28;20051;-88
2023/10/16 08:17:26;;;;;;;5.70;5.35;;;11.00;99.90;;;;;;5020022;28;20045;-89
2023/10/16 08:19:52;;;;;;;6.20;5.85;;;11.10;99.90;;;;;;5067782;28;20141;-88
2023/10/16 08:22:22;;;;;;;6.78;6.38;;;11.30;99.90;;;;;;5035894;28;20040;-88
2023/10/16 08:25:04;;;;;;;6.20;5.85;;;11.20;99.90;;;;;;5014878;28;20493;-88
2023/10/16 08:30:17;;;;;;;6.53;6.15;;;11.40;99.90;;;;;;5032519;28;20140;-87
2023/10/16 08:35:17;;;;;;;7.78;7.32;;;11.70;99.90;;;;;;5035767;28;20131;-89
2023/10/16 08:37:56;;;;;;;8.10;7.65;;;11.80;99.90;;;;;;5051564;28;20486;-88
2023/10/16 08:40:32;;;;;;;6.85;6.43;;;11.90;99.90;;;;;;5038666;28;20412;-87
2023/10/16 08:43:00;;;;;;;7.47;6.97;;;12.30;99.90;;;;;;5019508;28;20490;-89
2023/10/16 08:45:32;;;;;;;9.55;8.95;;;12.20;99.90;;;;;;5043560;28;20033;-87
2023/10/16 08:47:58;;;;;;;8.65;8.15;;;12.20;99.90;;;;;;5036445;28;20067;-90
2023/10/16 08:50:40;;;;;;;10.30;9.70;;;12.20;99.90;;;;;;5025380;28;20490;-88
2023/10/16 08:56:08;;;;;;;11.77;11.07;;;12.20;99.90;;;;;;5031696;28;20049;-94
2023/10/16 08:58:41;;;;;;;7.75;7.25;;;12.30;99.90;;;;;;5026974;28;20870;-85
2023/10/16 09:01:08;;;;;;;7.63;7.13;;;12.70;99.90;;;;;;5028023;28;20075;-86
2023/10/16 09:03:39;;;;;;;9.80;9.23;;;13.00;99.90;;;;;;5021441;28;20509;-87
2023/10/16 09:06:05;;;;;;;11.00;10.38;;;12.80;99.90;;;;;;5037361;28;20045;-88
2023/10/16 09:08:35;;;;;;;12.48;11.80;;;12.70;99.90;;;;;;5026086;28;20072;-88
2023/10/16 09:11:07;;;;;;;12.18;11.50;;;12.80;99.90;;;;;;5043695;28;20053;-88
2023/10/16 09:13:37;;;;;;;11.93;11.27;;;13.00;99.90;;;;;;5043683;28;20080;-88
2023/10/16 09:16:14;;;;;;;12.30;11.65;;;13.10;99.90;;;;;;5054688;28;20048;-87
2023/10/16 09:18:40;;;;;;;12.73;12.02;;;13.20;99.90;;;;;;5018542;28;20045;-85
2023/10/16 09:21:22;;;;;;;13.18;12.48;;;13.20;99.90;;;;;;5035913;28;20056;-89
2023/10/16 09:23:51;;;;;;;13.98;13.25;;;13.30;99.90;;;;;;5034709;28;20262;-86
2023/10/16 09:26:19;;;;;;;11.90;11.25;;;13.30;99.90;;;;;;5045422;28;20044;-89
2023/10/16 09:28:53;;;;;;;13.15;12.45;;;13.40;99.90;;;;;;5018890;28;20129;-88
2023/10/16 09:31:19;;;;;;;13.57;12.88;;;13.40;99.90;;;;;;5032594;28;20486;-88
2023/10/16 09:33:48;;;;;;;15.73;14.93;;;13.50;99.90;;;;;;5035511;28;20040;-89
2023/10/16 09:36:19;;;;;;;15.30;14.50;;;13.60;99.90;;;;;;5042339;28;20499;-90
2023/10/16 09:38:51;;;;;;;14.05;13.32;;;13.60;99.90;;;;;;5020214;28;20067;-87
2023/10/16 09:44:09;;;;;;;13.60;12.88;;;13.80;99.90;;;;;;5034673;28;20528;-87
2023/10/16 09:49:13;;;;;;;15.77;14.95;;;14.00;99.90;;;;;;5040155;28;20064;-87
2023/10/16 09:51:44;;;;;;;13.25;12.55;;;13.80;99.90;;;;;;5073380;28;20049;-86
2023/10/16 09:54:11;;;;;;;13.60;12.88;;;13.70;99.90;;;;;;5037423;28;20079;-87
2023/10/16 09:56:44;;;;;;;13.02;12.32;;;13.70;99.90;;;;;;5020036;28;20120;-87
2023/10/16 09:59:33;;;;;;;13.20;12.50;;;13.70;99.90;;;;;;5051249;28;20049;-88
2023/10/16 10:02:05;;;;;;;11.45;10.85;;;13.80;99.90;;;;;;5020004;28;20045;-87
2023/10/16 10:04:35;;;;;;;11.45;10.85;;;13.80;99.90;;;;;;5028339;28;20097;-89
2023/10/16 10:07:11;;;;;;;11.07;10.48;;;13.80;99.90;;;;;;5019474;28;20076;-88
2023/10/16 10:09:44;;;;;;;7.43;6.97;;;13.90;99.90;;;;;;5056446;28;20048;-90
2023/10/16 10:12:28;;;;;;;6.93;6.53;;;13.80;99.90;;;;;;5070338;28;20037;-87
2023/10/16 10:15:05;;;;;;;;;;;13.80;99.90;;;;;;5030511;28;20044;-88
2023/10/16 10:17:34;;;;;;;4.72;4.45;;;13.80;99.90;;;;;;5033255;28;20337;-88
2023/10/16 10:20:08;;;;;;;7.35;6.90;;;13.90;99.90;;;;;;5023735;28;20093;-86
2023/10/16 10:22:35;;;;;;;3.90;3.67;;;13.90;99.90;;;;;;5068273;28;20049;-88
2023/10/16 10:25:24;;;;;;;10.18;9.63;;;14.00;99.90;;;;;;5022058;28;20045;-87
2023/10/16 10:27:53;;;;;;;12.45;11.80;;;14.00;99.90;;;;;;5041965;28;20041;-89
2023/10/16 10:30:25;;;;;;;10.48;9.93;;;14.10;99.90;;;;;;5025363;28;20058;-89
2023/10/16 10:33:00;;;;;;;11.25;10.65;;;14.20;99.90;;;;;;5069568;28;20036;-89
2023/10/16 10:35:38;;;;;;;13.93;13.23;;;14.30;99.90;;;;;;5017953;28;20041;-90
2023/10/16 10:38:29;;;;;;;9.90;9.35;;;14.20;99.90;;;;;;5038582;28;20055;-88
2023/10/16 10:41:11;;;;;;;10.43;9.88;;;14.50;99.90;;;;;;5028862;28;20467;-90
2023/10/16 10:43:49;;;;;;;9.02;8.52;;;14.60;99.90;;;;;;5019245;28;20098;-87
2023/10/16 10:46:25;;;;;;;8.38;7.93;;;14.70;99.90;;;;;;5019889;28;20045;-89
2023/10/16 10:48:56;;;;;;;4.65;4.43;;;14.90;99.90;;;;;;5036179;28;20040;-89
2023/10/16 10:51:25;;;;;;;8.13;7.68;;;15.10;99.90;;;;;;5025054;28;20040;-89
2023/10/16 10:53:55;;;;;;;6.68;6.32;;;15.30;99.90;;;;;;5037111;28;20077;-87
2023/10/16 10:56:21;;;;;;;8.48;8.00;;;15.30;99.90;;;;;;5021687;28;20448;-86
2023/10/16 10:58:47;;;;;;;8.48;8.02;;;15.20;99.90;;;;;;5040181;28;20040;-90
2023/10/16 11:01:16;;;;;;;6.95;6.55;;;15.20;99.90;;;;;;5037078;28;20033;-87
2023/10/16 11:03:46;;;;;;;8.15;7.70;;;15.30;99.90;;;;;;5043212;28;20040;-91
2023/10/16 11:06:19;;;;;;;9.23;8.73;;;15.30;99.90;;;;;;5017136;28;20108;-89
2023/10/16 11:08:51;;;;;;;10.60;10.02;;;15.10;99.90;;;;;;5021845;28;20481;-93
2023/10/16 11:11:17;;;;;;;7.70;7.25;;;15.10;99.90;;;;;;5023387;28;20390;-89
2023/10/16 11:13:47;;;;;;;5.57;5.25;;;15.40;99.90;;;;;;5022607;28;20052;-89
2023/10/16 11:16:14;;;;;;;6.53;6.15;;;15.30;99.90;;;;;;5021327;28;20041;-88
2023/10/16 11:19:03;;;;;;;4.50;4.22;;;15.40;99.90;;;;;;5061138;28;20485;-95
2023/10/16 11:21:29;;;;;;;6.30;5.93;;;15.80;99.90;;;;;;5026751;28;20055;-91
2023/10/16 11:24:15;;;;;;;6.60;6.20;;;15.50;99.90;;;;;;5024381;28;20040;-93
2023/10/16 11:26:47;;;;;;;6.28;5.90;;;15.20;99.90;;;;;;5025938;28;20045;-92
2023/10/16 11:29:12;;;;;;;5.45;5.10;;;15.00;99.90;;;;;;5016970;28;20537;-87
2023/10/16 11:31:44;;;;;;;4.97;4.68;;;14.90;99.90;;;;;;5034540;28;20060;-87
2023/10/16 11:34:12;;;;;;;2.67;2.53;;;14.70;99.90;;;;;;5041792;28;20242;-90
2023/10/16 11:36:39;;;;;;;3.08;2.88;;;14.60;99.90;;;;;;5036666;28;20127;-90
2023/10/16 11:39:10;;;;;;;2.25;2.15;;;14.50;99.90;;;;;;5019562;28;20045;-90
2023/10/16 11:41:36;;;;;;;2.75;2.60;;;14.50;99.90;;;;;;5018978;28;20052;-90
2023/10/16 11:44:14;;;;;;;3.13;2.92;;;14.30;99.90;;;;;;5023779;28;20056;-89
2023/10/16 11:46:51;;;;;;;4.25;3.97;;;14.40;99.90;;;;;;5052858;28;20128;-90
2023/10/16 11:51:51;;;;;;;3.05;2.85;;;14.40;99.90;;;;;;5075362;28;20055;-87
2023/10/16 11:54:23;;;;;;;3.40;3.22;;;14.50;99.90;;;;;;5021685;28;20045;-90
2023/10/16 11:56:56;;;;;;;5.68;5.32;;;14.60;99.90;;;;;;5037453;28;20045;-92
2023/10/16 11:59:25;;;;;;;5.28;4.95;;;14.50;99.90;;;;;;5035999;28;20083;-88
2023/10/16 12:01:52;;;;;;;4.18;3.92;;;14.60;99.90;;;;;;5019400;28;20746;-88
2023/10/16 12:04:22;;;;;;;3.20;3.00;;;14.70;99.90;;;;;;5023640;28;20494;-87
2023/10/16 12:06:48;;;;;;;4.32;4.07;;;14.70;99.90;;;;;;5016856;28;20062;-87
2023/10/16 12:09:19;;;;;;;5.15;4.82;;;14.70;99.90;;;;;;5053389;28;20052;-90
2023/10/16 12:11:50;;;;;;;3.72;3.50;;;14.80;99.90;;;;;;5015542;28;20045;-88
2023/10/16 12:14:17;;;;;;;3.45;3.25;;;15.00;99.90;;;;;;5037605;28;20057;-89
2023/10/16 12:16:47;;;;;;;4.43;4.15;;;15.20;99.90;;;;;;5054528;28;20044;-89
2023/10/16 12:19:17;;;;;;;5.13;4.80;;;15.20;99.90;;;;;;5037448;28;20087;-92
2023/10/16 12:21:52;;;;;;;5.47;5.13;;;15.20;99.90;;;;;;5056466;28;20068;-89
2023/10/16 12:24:18;;;;;;;4.90;4.60;;;15.20;99.90;;;;;;5023876;28;20041;-88
2023/10/16 12:26:45;;;;;;;5.18;4.85;;;15.00;99.90;;;;;;5055576;28;20854;-90
2023/10/16 12:29:11;;;;;;;4.78;4.47;;;15.00;99.90;;;;;;5017564;28;20044;-92
2023/10/16 12:31:40;;;;;;;3.28;3.08;;;15.00;99.90;;;;;;5022162;28;20091;-95
2023/10/16 12:34:11;;;;;;;4.65;4.35;;;15.20;99.90;;;;;;5025285;28;20051;-91
2023/10/16 12:36:42;;;;;;;4.95;4.65;;;15.20;99.90;;;;;;5017573;28;20135;-91
2023/10/16 12:39:18;;;;;;;4.38;4.10;;;15.20;99.90;;;;;;5053108;28;20048;-92
2023/10/16 12:41:44;;;;;;;4.07;3.83;;;15.20;99.90;;;;;;5020030;28;20083;-91
2023/10/16 12:44:11;;;;;;;4.30;4.03;;;15.30;99.90;;;;;;5023787;28;20044;-89
2023/10/16 12:46:43;;;;;;;3.58;3.38;;;15.40;99.90;;;;;;5023600;28;20045;-90
2023/10/16 12:49:08;;;;;;;3.05;2.88;;;15.50;99.90;;;;;;5022259;28;20049;-88
2023/10/16 12:51:34;;;;;;;3.08;2.90;;;15.30;99.90;;;;;;5027721;28;20047;-92
2023/10/16 12:54:03;;;;;;;3.88;3.65;;;15.60;99.90;;;;;;5025373;28;20052;-89
2023/10/16 12:56:31;;;;;;;2.78;2.63;;;15.60;99.90;;;;;;5043599;28;20048;-91
2023/10/16 12:58:58;;;;;;;3.13;2.92;;;15.50;99.90;;;;;;5022065;28;20531;-93
2023/10/16 13:01:24;;;;;;;3.63;3.40;;;15.70;99.90;;;;;;5028381;28;20049;-88
2023/10/16 13:03:50;;;;;;;3.10;2.92;;;15.60;99.90;;;;;;5044536;28;20079;-91
2023/10/16 13:06:15;;;;;;;3.65;3.42;;;15.50;99.90;;;;;;5039840;28;20097;-90
2023/10/16 13:08:42;;;;;;;3.65;3.42;;;15.40;99.90;;;;;;5042173;28;20640;-89
2023/10/16 13:11:08;;;;;;;3.05;2.88;;;15.40;99.90;;;;;;5023490;28;20048;-90
2023/10/16 13:13:34;;;;;;;3.10;2.92;;;15.60;99.90;;;;;;5028043;28;20124;-89
2023/10/16 13:16:01;;;;;;;3.25;3.05;;;15.50;99.90;;;;;;5039997;28;20508;-91
2023/10/16 13:18:27;;;;;;;3.58;3.35;;;15.60;99.90;;;;;;5021124;28;20097;-91
2023/10/16 13:21:13;;;;;;;1.95;1.85;;;15.20;99.90;;;;;;5037081;28;20069;-89
2023/10/16 13:23:39;;;;;;;2.13;2.03;;;15.40;99.90;;;;;;5033445;28;20057;-91
2023/10/16 13:26:08;;;;;;;1.55;1.45;;;15.40;99.90;;;;;;5022695;28;20044;-91
2023/10/16 13:28:41;;;;;;;1.80;1.70;;;15.60;99.90;;;;;;5048549;28;20044;-89
2023/10/16 13:31:08;;;;;;;1.67;1.58;;;15.80;99.90;;;;;;5038350;28;20052;-90
2023/10/16 13:33:34;;;;;;;2.15;2.05;;;15.40;99.90;;;;;;5035031;28;20075;-91
2023/10/16 13:36:04;;;;;;;2.00;1.90;;;15.80;99.90;;;;;;5035998;28;20041;-96
2023/10/16 13:38:31;;;;;;;1.60;1.50;;;15.70;99.90;;;;;;5042065;28;20052;-90
2023/10/16 13:41:06;;;;;;;1.73;1.63;;;15.90;99.90;;;;;;5019572;28;20037;-93
2023/10/16 13:43:32;;;;;;;1.75;1.65;;;16.00;99.90;;;;;;5045895;28;20090;-91
2023/10/16 13:45:58;;;;;;;1.90;1.80;;;15.90;99.90;;;;;;5037730;28;20045;-88
2023/10/16 13:48:28;;;;;;;1.67;1.58;;;15.70;99.90;;;;;;5039594;28;20041;-93
2023/10/16 13:50:54;;;;;;;1.70;1.60;;;15.80;99.90;;;;;;5020043;28;20056;-91
2023/10/16 13:53:20;;;;;;;1.90;1.80;;;15.70;99.90;;;;;;5045503;28;20227;-92
2023/10/16 13:55:52;;;;;;;1.88;1.77;;;15.50;99.90;;;;;;5037287;28;20081;-91
2023/10/16 13:58:19;;;;;;;2.00;1.90;;;15.40;99.90;;;;;;5043260;28;20044;-92
2023/10/16 14:00:47;;;;;;;1.85;1.75;;;15.50;99.90;;;;;;5045290;28;20048;-90
2023/10/16 14:05:46;;;;;;;1.88;1.77;;;15.40;99.90;;;;;;5039481;28;20045;-93
2023/10/16 14:08:14;;;;;;;1.73;1.63;;;15.30;99.90;;;;;;5022348;28;20037;-91
2023/10/16 14:10:52;;;;;;;2.30;2.20;;;15.30;99.90;;;;;;5066754;28;20068;-87
2023/10/16 14:13:21;;;;;;;2.33;2.22;;;15.30;99.90;;;;;;5039294;28;20084;-93
2023/10/16 14:15:51;;;;;;;2.28;2.17;;;15.30;99.90;;;;;;5057135;28;20044;-89
2023/10/16 14:18:21;;;;;;;2.35;2.25;;;15.10;99.90;;;;;;5041988;28;20068;-89
2023/10/16 14:20:48;;;;;;;2.28;2.17;;;15.00;99.90;;;;;;5016333;28;20114;-86
2023/10/16 14:23:19;;;;;;;2.13;2.03;;;14.90;99.90;;;;;;5031859;28;20048;-93
2023/10/16 14:25:49;;;;;;;2.10;2.00;;;14.70;99.90;;;;;;5050926;28;20041;-89
2023/10/16 14:28:25;;;;;;;2.22;2.13;;;14.60;99.90;;;;;;5018936;28;20076;-89
2023/10/16 14:30:54;;;;;;;1.95;1.85;;;14.70;99.90;;;;;;5035905;28;20128;-89
2023/10/16 14:33:23;;;;;;;2.03;1.92;;;14.60;99.90;;;;;;5017675;28;20068;-89
2023/10/16 14:35:49;;;;;;;1.90;1.80;;;14.60;99.90;;;;;;5025723;28;20052;-90
2023/10/16 14:38:19;;;;;;;1.98;1.88;;;14.50;99.90;;;;;;5033048;28;20049;-89
2023/10/16 14:40:46;;;;;;;2.70;2.55;;;14.50;99.90;;;;;;5031799;28;20107;-87
2023/10/16 14:43:15;;;;;;;2.17;2.08;;;14.40;99.90;;;;;;5017170;28;20051;-89
2023/10/16 14:45:42;;;;;;;2.20;2.10;;;14.50;99.90;;;;;;5049479;28;20115;-91
2023/10/16 14:48:09;;;;;;;2.10;2.00;;;14.50;99.90;;;;;;5020828;28;20045;-89
2023/10/16 14:50:38;;;;;;;2.33;2.22;;;14.30;99.90;;;;;;5034666;28;20545;-89
2023/10/16 14:53:06;;;;;;;2.20;2.10;;;14.20;99.90;;;;;;5028194;28;20073;-87
2023/10/16 14:55:33;;;;;;;2.40;2.30;;;14.20;99.90;;;;;;5017819;28;20087;-87
2023/10/16 14:57:59;;;;;;;2.60;2.50;;;14.20;99.90;;;;;;5029811;28;20498;-92
2023/10/16 15:00:31;;;;;;;2.13;2.03;;;14.20;99.90;;;;;;5036100;28;20083;-88
2023/10/16 15:02:57;;;;;;;2.00;1.90;;;14.20;99.90;;;;;;5017847;28;20123;-92
2023/10/16 15:05:28;;;;;;;2.17;2.08;;;13.90;99.90;;;;;;5014329;28;20048;-88
2023/10/16 15:07:58;;;;;;;2.13;2.03;;;13.90;99.90;;;;;;5034933;28;20041;-88
2023/10/16 15:10:25;;;;;;;1.98;1.88;;;13.90;99.90;;;;;;5024544;28;20076;-87
2023/10/16 15:12:50;;;;;;;2.20;2.10;;;13.90;99.90;;;;;;5018704;28;20046;-88
2023/10/16 15:15:16;;;;;;;1.92;1.83;;;13.80;99.90;;;;;;5033127;28;20047;-89
2023/10/16 15:17:43;;;;;;;2.03;1.92;;;13.80;99.90;;;;;;5021168;28;20119;-89
2023/10/16 15:20:16;;;;;;;1.88;1.77;;;13.80;99.90;;;;;;5030521;28;20051;-87
2023/10/16 15:22:44;;;;;;;2.10;2.00;;;13.80;99.90;;;;;;5036197;28;20389;-88